Time;durP1;ratioP1;P1;durP2;ratioP2;P2;SDS_P1;SDS_P2;PMS_P1;PMS_P2;Temp;Humidity;BMP_temperature;BMP_pressure;BME280_temperature;BME280_humidity;BME280_pressure;Samples;Min_cycle;Max_cycle;Signal;HPM_P1;HPM_P2
2021/06/17 00:00:52;;;;;;;7.10;4.53;;;24.80;67.20;;;;;;5120146;28;20016;-86
2021/06/17 00:03:40;;;;;;;7.78;4.22;;;24.80;67.40;;;;;;5086905;28;20024;-85
2021/06/17 00:07:04;;;;;;;7.50;4.45;;;24.70;67.40;;;;;;5017888;28;20232;-86
2021/06/17 00:09:54;;;;;;;8.82;4.72;;;24.60;67.60;;;;;;5029681;28;20026;-88
2021/06/17 00:12:21;;;;;;;8.48;4.68;;;24.60;67.70;;;;;;5031597;28;20422;-82
2021/06/17 00:14:48;;;;;;;8.05;4.35;;;24.50;67.70;;;;;;5085398;28;20355;-85
2021/06/17 00:17:19;;;;;;;9.02;4.87;;;24.40;67.80;;;;;;5096658;28;20013;-87
2021/06/17 00:19:49;;;;;;;7.62;4.10;;;24.40;67.90;;;;;;5096807;28;20009;-87
2021/06/17 00:22:17;;;;;;;7.45;4.43;;;24.40;67.90;;;;;;5109670;28;20072;-86
2021/06/17 00:24:46;;;;;;;8.00;4.15;;;24.30;67.90;;;;;;5092036;28;20014;-86
2021/06/17 00:27:58;;;;;;;5.78;4.47;;;24.30;68.10;;;;;;5114040;28;20392;-85
2021/06/17 00:34:11;;;;;;;7.55;4.10;;;24.20;68.10;;;;;;5082757;28;20011;-86
2021/06/17 00:36:56;;;;;;;6.00;4.00;;;24.20;68.10;;;;;;5097200;28;20001;-85
2021/06/17 00:39:33;;;;;;;5.47;3.80;;;24.10;68.10;;;;;;5096403;28;20063;-86
2021/06/17 00:42:09;;;;;;;7.60;4.30;;;24.10;68.10;;;;;;5096760;28;20064;-86
2021/06/17 00:45:08;;;;;;;;;;;;;;;;;;;;;
2021/06/17 00:52:51;;;;;;;7.65;4.20;;;24.00;68.30;;;;;;5113490;28;20045;-86
2021/06/17 01:24:39;;;;;;;;;;;;;;;;;;;;;
2021/06/17 01:32:20;;;;;;;;;;;;;;;;;;;;;
2021/06/17 01:35:43;;;;;;;8.70;4.32;;;23.30;69.60;;;;;;4853686;29;20180;-85
2021/06/17 01:45:45;;;;;;;8.35;4.43;;;23.10;69.80;;;;;;4821482;29;20031;-86
2021/06/17 01:48:47;;;;;;;6.57;4.15;;;23.10;69.90;;;;;;4857531;29;20017;-85
2021/06/17 01:52:00;;;;;;;5.62;3.92;;;23.00;69.90;;;;;;4836403;29;20057;-86
2021/06/17 02:14:07;;;;;;;6.18;3.17;;;22.80;69.90;;;;;;5050243;28;20046;-85
2021/06/17 02:17:06;;;;;;;;;;;;;;;;;;;;;
2021/06/17 02:23:50;;;;;;;5.32;3.20;;;22.80;70.00;;;;;;4915878;29;20055;-84
2021/06/17 02:26:57;;;;;;;;;;;;;;;;;;;;;
2021/06/17 02:29:49;;;;;;;5.93;3.10;;;22.80;70.00;;;;;;4958154;28;20037;-85
2021/06/17 02:32:31;;;;;;;6.65;3.65;;;22.80;70.10;;;;;;4957927;28;20498;-84
2021/06/17 02:35:16;;;;;;;6.72;3.72;;;22.80;70.00;;;;;;4944145;29;20066;-84
2021/06/17 02:38:03;;;;;;;8.85;3.15;;;22.80;70.00;;;;;;4958130;28;20332;-84
2021/06/17 02:40:46;;;;;;;5.45;3.70;;;22.80;70.00;;;;;;4958102;28;20045;-83
2021/06/17 02:43:31;;;;;;;7.12;3.20;;;22.80;70.10;;;;;;4958548;28;20061;-84
2021/06/17 02:46:18;;;;;;;5.97;3.53;;;22.80;70.10;;;;;;4966616;28;20027;-84
2021/06/17 02:48:55;;;;;;;6.65;3.37;;;22.80;70.00;;;;;;5061071;28;20165;-84
2021/06/17 02:51:23;;;;;;;5.00;3.37;;;22.80;70.00;;;;;;5120029;28;20011;-84
2021/06/17 02:53:53;;;;;;;5.90;3.20;;;22.80;70.00;;;;;;5120248;28;20062;-85
2021/06/17 02:56:42;;;;;;;4.62;2.95;;;22.80;70.00;;;;;;5137148;28;20455;-84
2021/06/17 02:59:37;;;;;;;6.90;3.00;;;22.80;70.00;;;;;;5141015;27;20029;-85
2021/06/17 03:02:14;;;;;;;7.60;3.08;;;22.80;70.00;;;;;;5224861;27;20006;-84
2021/06/17 03:05:07;;;;;;;5.10;3.50;;;22.80;70.10;;;;;;5222352;27;20047;-84
2021/06/17 03:07:45;;;;;;;6.30;3.10;;;22.80;70.10;;;;;;5221717;27;20427;-85
2021/06/17 03:10:16;;;;;;;6.10;3.17;;;22.70;70.10;;;;;;5221236;27;20037;-84
2021/06/17 03:12:54;;;;;;;10.30;3.40;;;22.70;70.10;;;;;;5220924;27;20030;-84
2021/06/17 03:15:34;;;;;;;4.97;3.12;;;22.70;70.00;;;;;;5221292;27;20043;-84
2021/06/17 03:18:05;;;;;;;4.40;3.00;;;22.70;70.10;;;;;;5221698;27;20065;-83
2021/06/17 03:20:39;;;;;;;10.45;3.08;;;22.70;70.20;;;;;;5240105;27;20379;-84
2021/06/17 03:23:18;;;;;;;5.37;2.92;;;22.70;70.20;;;;;;5221303;27;20405;-83
2021/06/17 03:25:57;;;;;;;5.68;3.28;;;22.70;70.30;;;;;;5222454;27;20019;-84
2021/06/17 03:28:28;;;;;;;12.15;3.80;;;22.60;70.40;;;;;;5221297;27;20002;-84
2021/06/17 03:31:00;;;;;;;6.07;3.20;;;22.70;70.50;;;;;;5220426;27;20054;-83
2021/06/17 03:33:36;;;;;;;6.68;3.17;;;22.60;70.50;;;;;;5241329;27;20065;-84
2021/06/17 03:36:11;;;;;;;4.75;3.08;;;22.70;70.60;;;;;;5221579;27;20017;-83
2021/06/17 03:39:04;;;;;;;5.78;2.97;;;22.60;70.80;;;;;;5224087;27;20436;-84
2021/06/17 03:49:03;;;;;;;10.27;3.83;;;22.50;71.40;;;;;;5208052;27;20025;-88
2021/06/17 03:51:34;;;;;;;19.85;3.83;;;22.40;72.10;;;;;;5221042;27;20010;-87
2021/06/17 03:54:02;;;;;;;14.65;4.60;;;22.40;73.80;;;;;;5220416;27;20053;-85
2021/06/17 03:56:37;;;;;;;14.18;4.90;;;22.30;75.80;;;;;;5239884;27;20011;-88
2021/06/17 04:03:57;;;;;;;13.52;4.18;;;21.90;77.90;;;;;;5071158;28;20092;-90
2021/06/17 04:07:39;;;;;;;;;;;;;;;;;;;;;
2021/06/17 04:11:04;;;;;;;;;;;21.60;79.40;;;;;;4896338;29;20452;-89
2021/06/17 04:35:11;;;;;;;17.15;6.22;;;21.10;81.00;;;;;;5210473;27;265532;-82
2021/06/17 04:37:59;;;;;;;;;;;;;;;;;;;;;
2021/06/17 04:41:07;;;;;;;14.30;6.00;;;21.00;81.00;;;;;;5176549;27;20015;-86
2021/06/17 04:44:26;;;;;;;21.42;5.75;;;21.00;80.90;;;;;;5126178;28;20072;-89
2021/06/17 04:47:13;;;;;;;;;;;;;;;;;;;;;
2021/06/17 04:50:08;;;;;;;14.23;5.95;;;21.00;80.90;;;;;;5054374;28;20037;-86
2021/06/17 04:52:52;;;;;;;15.02;6.15;;;21.00;80.90;;;;;;5054760;28;20009;-87
2021/06/17 04:55:56;;;;;;;14.70;6.05;;;21.00;80.80;;;;;;5028786;28;20088;-87
2021/06/17 04:58:28;;;;;;;17.13;5.40;;;21.10;80.70;;;;;;5066994;28;20017;-85
2021/06/17 05:01:07;;;;;;;15.90;5.90;;;21.10;80.70;;;;;;5079135;28;20122;-87
2021/06/17 05:11:54;;;;;;;10.23;5.40;;;21.20;80.30;;;;;;4992508;28;20011;-87
2021/06/17 05:15:02;;;;;;;9.40;5.00;;;21.30;80.10;;;;;;4999354;28;20041;-87
2021/06/17 05:17:59;;;;;;;;;;;;;;;;;;;;;
2021/06/17 05:20:31;;;;;;;15.40;5.97;;;21.40;79.80;;;;;;4956548;29;20027;-86
2021/06/17 05:22:58;;;;;;;11.73;5.43;;;21.40;79.60;;;;;;4956357;29;20074;-86
2021/06/17 05:25:26;;;;;;;12.50;5.05;;;21.40;79.60;;;;;;4940888;29;20025;-85
2021/06/17 05:28:03;;;;;;;12.75;5.25;;;21.30;79.60;;;;;;4952833;28;20071;-87
2021/06/17 05:30:37;;;;;;;19.67;5.82;;;21.40;79.60;;;;;;4956387;28;20104;-84
2021/06/17 05:33:07;;;;;;;13.93;5.78;;;21.40;79.60;;;;;;4984416;28;20062;-85
2021/06/17 05:39:21;;;;;;;15.68;6.30;;;21.40;79.60;;;;;;4933390;29;20044;-86
2021/06/17 05:41:48;;;;;;;14.80;5.65;;;21.40;79.50;;;;;;4932906;29;20499;-86
2021/06/17 05:44:18;;;;;;;13.62;5.70;;;21.40;79.50;;;;;;4984678;28;20439;-86
2021/06/17 05:46:45;;;;;;;11.73;6.07;;;21.40;79.50;;;;;;5051644;28;20035;-86
2021/06/17 05:49:22;;;;;;;;;;;;;;;;;;;;;
2021/06/17 05:52:00;;;;;;;15.10;6.50;;;21.40;79.60;;;;;;5049804;28;20043;-87
2021/06/17 05:54:31;;;;;;;14.20;6.03;;;21.40;79.80;;;;;;5050085;28;20013;-88
2021/06/17 05:57:01;;;;;;;13.48;5.85;;;21.40;79.80;;;;;;5049851;28;20072;-86
2021/06/17 05:59:31;;;;;;;14.25;6.05;;;21.40;79.80;;;;;;5050055;28;20071;-85
2021/06/17 06:01:58;;;;;;;14.70;6.62;;;21.40;79.80;;;;;;5050738;28;20513;-85
2021/06/17 06:04:27;;;;;;;11.57;5.28;;;21.40;79.90;;;;;;5049819;28;20035;-84
2021/06/17 06:06:55;;;;;;;15.70;6.85;;;21.40;80.00;;;;;;5049847;28;20050;-86
2021/06/17 06:09:34;;;;;;;12.93;5.60;;;21.40;80.00;;;;;;5049931;28;20037;-86
2021/06/17 06:12:04;;;;;;;9.82;5.62;;;21.40;80.10;;;;;;5049664;28;20028;-87
2021/06/17 06:14:36;;;;;;;10.25;5.20;;;21.50;80.20;;;;;;5088306;27;20024;-85
2021/06/17 06:17:04;;;;;;;9.73;5.62;;;21.50;80.10;;;;;;5198280;27;20010;-87
2021/06/17 06:19:38;;;;;;;11.00;5.53;;;21.60;80.20;;;;;;5197869;27;20015;-83
2021/06/17 06:22:12;;;;;;;11.07;5.70;;;21.60;80.10;;;;;;5217338;27;20027;-86
2021/06/17 06:25:06;;;;;;;12.35;5.70;;;21.70;80.10;;;;;;5158913;27;20016;-86
2021/06/17 06:27:35;;;;;;;12.82;5.75;;;21.70;80.10;;;;;;5171874;27;20011;-86
2021/06/17 06:30:26;;;;;;;8.00;5.75;;;21.80;80.10;;;;;;5155160;27;20042;-86
2021/06/17 06:33:13;;;;;;;;;;;;;;;;;;;;;
2021/06/17 06:36:11;;;;;;;;;;;;;;;;;;;;;
2021/06/17 06:39:02;;;;;;;12.60;6.28;;;21.80;80.50;;;;;;5171188;27;20098;-87
2021/06/17 06:41:40;;;;;;;15.23;6.28;;;21.80;80.70;;;;;;5199909;27;20300;-85
2021/06/17 06:44:10;;;;;;;11.73;6.47;;;21.80;80.80;;;;;;5198528;27;20105;-86
2021/06/17 06:46:41;;;;;;;14.77;7.15;;;21.80;80.90;;;;;;5198945;27;20022;-85
2021/06/17 06:49:09;;;;;;;10.90;6.32;;;21.80;81.00;;;;;;5197912;27;20007;-86
2021/06/17 06:51:43;;;;;;;11.57;6.50;;;21.80;81.10;;;;;;5216526;27;20419;-85
2021/06/17 06:54:31;;;;;;;10.95;6.28;;;21.80;81.20;;;;;;5151130;27;20416;-85
2021/06/17 06:56:58;;;;;;;11.00;5.78;;;21.90;81.30;;;;;;5151453;27;20075;-85
2021/06/17 06:59:29;;;;;;;12.70;6.80;;;21.90;81.20;;;;;;5152592;27;20063;-86
2021/06/17 07:02:00;;;;;;;12.27;5.65;;;21.90;81.20;;;;;;5151224;27;20051;-87
2021/06/17 07:04:52;;;;;;;;;;;;;;;;;;;;;
2021/06/17 07:11:48;;;;;;;;;;;;;;;;;;;;;
2021/06/17 07:14:44;;;;;;;;;;;;;;;;;;;;;
2021/06/17 07:17:46;;;;;;;10.95;5.55;;;22.10;81.20;;;;;;5068585;28;20017;-88
2021/06/17 07:20:15;;;;;;;10.15;5.70;;;22.10;81.30;;;;;;5069455;28;20402;-86
2021/06/17 07:23:51;;;;;;;;;;;;;;;;;;;;;
2021/06/17 07:27:43;;;;;;;9.35;4.55;;;22.10;81.20;;;;;;5003043;28;20025;-88
2021/06/17 07:30:27;;;;;;;10.10;5.47;;;22.10;81.10;;;;;;5054102;28;20453;-84
2021/06/17 07:32:54;;;;;;;12.55;5.25;;;22.20;81.20;;;;;;5052561;28;20039;-80
2021/06/17 07:35:23;;;;;;;13.75;5.90;;;22.20;81.40;;;;;;5100109;28;20481;-84
2021/06/17 07:37:50;;;;;;;9.02;5.18;;;22.20;81.40;;;;;;5113627;28;20011;-85
2021/06/17 07:40:18;;;;;;;15.90;5.12;;;22.30;81.30;;;;;;5113283;28;20028;-87
2021/06/17 07:42:48;;;;;;;11.00;5.68;;;22.40;81.30;;;;;;5113532;28;20028;-85
2021/06/17 07:45:15;;;;;;;10.50;5.37;;;22.40;81.10;;;;;;5113258;28;20428;-88
2021/06/17 07:47:49;;;;;;;9.05;4.93;;;22.40;80.90;;;;;;5147275;27;20021;-86
2021/06/17 14:33:19;;;;;;;7.40;2.15;;;30.00;59.60;;;;;;5213525;27;261516;-87
2021/06/17 14:35:46;;;;;;;6.07;1.90;;;29.90;59.00;;;;;;5223229;27;20509;-85
2021/06/17 14:38:40;;;;;;;6.28;2.10;;;29.80;59.10;;;;;;5203731;27;20003;-85
2021/06/17 14:41:47;;;;;;;5.45;1.87;;;29.70;59.50;;;;;;5204292;27;20388;-83
2021/06/17 14:48:45;;;;;;;5.12;2.00;;;29.70;60.50;;;;;;5222469;27;20500;-87
2021/06/17 14:51:15;;;;;;;6.85;1.90;;;29.60;60.40;;;;;;5094871;28;20024;-85
2021/06/17 14:54:39;;;;;;;;;;;;;;;;;;;;;
2021/06/17 19:04:21;;;;;;;8.18;2.47;;;26.20;71.40;;;;;;5213284;27;20031;-87
2021/06/17 19:07:19;;;;;;;5.65;2.28;;;26.20;71.50;;;;;;5200413;27;20014;-86
2021/06/17 19:10:00;;;;;;;6.65;2.37;;;26.10;71.60;;;;;;5200891;27;20397;-83
2021/06/17 19:16:50;;;;;;;;;;;;;;;;;;;;;
2021/06/17 19:20:10;;;;;;;;;;;;;;;;;;;;;
2021/06/17 19:23:15;;;;;;;;;;;;;;;;;;;;;
2021/06/17 19:25:47;;;;;;;13.18;8.25;;;25.90;72.40;;;;;;5050378;28;20422;-85
2021/06/17 19:28:15;;;;;;;10.50;5.53;;;25.90;72.60;;;;;;5049883;28;20044;-84
2021/06/17 19:30:48;;;;;;;6.70;3.30;;;25.80;72.70;;;;;;5033331;28;20025;-85
2021/06/17 19:33:22;;;;;;;6.53;2.85;;;25.80;72.80;;;;;;5033133;28;20053;-85
2021/06/17 19:40:05;;;;;;;7.12;2.80;;;25.70;73.10;;;;;;5050197;28;20028;-86
2021/06/17 19:42:32;;;;;;;4.55;2.40;;;25.60;73.20;;;;;;5049915;28;20017;-82
2021/06/17 19:44:59;;;;;;;13.13;2.65;;;25.60;73.20;;;;;;5033397;28;20013;-84
2021/06/17 19:47:26;;;;;;;6.93;2.60;;;25.50;73.30;;;;;;5065846;28;20022;-85
2021/06/17 19:49:53;;;;;;;6.55;2.53;;;25.50;73.30;;;;;;5095049;28;20060;-86
2021/06/17 19:53:16;;;;;;;;;;;;;;;;;;;;;
2021/06/17 19:56:11;;;;;;;7.45;2.80;;;25.40;73.50;;;;;;5196439;27;20335;-84
2021/06/17 19:58:39;;;;;;;4.35;2.40;;;25.40;73.60;;;;;;5196146;27;20019;-85
2021/06/17 20:01:46;;;;;;;;;;;;;;;;;;;;;
2021/06/17 20:08:46;;;;;;;;;;;;;;;;;;;;;
2021/06/17 20:11:59;;;;;;;14.55;3.72;;;25.20;73.90;;;;;;5011056;28;20412;-90
2021/06/17 20:14:28;;;;;;;7.82;3.37;;;25.10;74.10;;;;;;5009783;28;20015;-86
2021/06/17 20:16:57;;;;;;;9.00;2.83;;;25.10;74.20;;;;;;5051222;28;20037;-85
2021/06/17 20:19:27;;;;;;;10.20;3.15;;;25.00;74.30;;;;;;5050049;28;20386;-84
2021/06/17 20:21:55;;;;;;;5.18;2.60;;;25.00;74.50;;;;;;5049400;28;20056;-84
2021/06/17 20:24:22;;;;;;;6.55;2.50;;;25.00;74.60;;;;;;5049661;28;20022;-84
2021/06/17 20:26:50;;;;;;;10.38;3.03;;;24.90;74.70;;;;;;5050054;28;20046;-82
2021/06/17 20:29:17;;;;;;;5.53;3.08;;;25.00;74.80;;;;;;5049396;28;20048;-83
2021/06/17 20:31:45;;;;;;;5.37;2.95;;;24.90;74.90;;;;;;5049612;28;20095;-82
2021/06/17 20:34:15;;;;;;;8.13;3.20;;;24.90;75.00;;;;;;5049922;28;20065;-81
2021/06/17 20:36:43;;;;;;;8.95;3.53;;;24.90;75.10;;;;;;5048974;28;20028;-85
2021/06/17 20:39:10;;;;;;;7.82;3.42;;;24.80;75.10;;;;;;5050823;28;20018;-84
2021/06/17 20:41:38;;;;;;;12.40;3.45;;;24.90;75.20;;;;;;5118465;27;20030;-84
2021/06/17 20:50:49;;;;;;;7.28;3.25;;;24.80;75.40;;;;;;5058435;27;20053;-87
2021/06/17 20:53:16;;;;;;;7.28;2.70;;;24.80;75.40;;;;;;5154658;27;20024;-85
2021/06/17 20:55:43;;;;;;;8.77;3.20;;;24.80;75.50;;;;;;5135857;27;20039;-82
2021/06/17 20:58:10;;;;;;;12.05;3.47;;;24.70;75.50;;;;;;5153579;27;20015;-84
2021/06/17 21:00:37;;;;;;;6.80;3.33;;;24.70;75.60;;;;;;5135175;27;20022;-84
2021/06/17 21:03:05;;;;;;;9.07;3.40;;;24.70;75.70;;;;;;5155425;27;20043;-84
2021/06/17 21:05:32;;;;;;;6.30;2.72;;;24.70;75.70;;;;;;5144386;27;20058;-90
2021/06/17 21:07:59;;;;;;;8.60;3.42;;;24.70;75.80;;;;;;5155375;27;20015;-82
2021/06/17 21:10:26;;;;;;;6.15;3.35;;;24.60;75.90;;;;;;5174738;27;20011;-83
2021/06/17 21:12:54;;;;;;;6.97;3.50;;;24.60;75.90;;;;;;5156459;27;20355;-81
2021/06/17 21:15:21;;;;;;;7.03;3.28;;;24.60;76.00;;;;;;5174371;27;20092;-86
2021/06/17 21:17:48;;;;;;;8.15;3.72;;;24.60;76.10;;;;;;5156212;27;20035;-80
2021/06/17 21:20:15;;;;;;;7.35;3.42;;;24.50;76.00;;;;;;5173943;27;20066;-83
2021/06/17 21:22:43;;;;;;;6.72;3.28;;;24.50;76.00;;;;;;5174271;27;20378;-83
2021/06/17 21:25:11;;;;;;;8.60;3.70;;;24.50;76.00;;;;;;5156391;27;20058;-83
2021/06/17 21:27:38;;;;;;;11.38;3.50;;;24.40;76.00;;;;;;5156309;27;20368;-81
2021/06/17 21:30:06;;;;;;;10.98;3.62;;;24.40;76.00;;;;;;5155717;27;20073;-84
2021/06/17 21:32:35;;;;;;;7.70;3.72;;;24.40;76.00;;;;;;5155888;27;20387;-87
2021/06/17 21:35:03;;;;;;;8.13;3.25;;;24.30;76.00;;;;;;5155245;27;20015;-84
2021/06/17 21:37:30;;;;;;;7.43;3.03;;;24.30;76.00;;;;;;5174475;27;20427;-86
2021/06/17 21:39:57;;;;;;;5.55;3.08;;;24.30;76.10;;;;;;5156075;27;20022;-81
2021/06/17 21:42:25;;;;;;;7.72;3.85;;;24.20;76.20;;;;;;5155563;27;20018;-85
2021/06/17 21:44:55;;;;;;;6.78;3.97;;;24.20;76.20;;;;;;5156945;27;20012;-81
2021/06/17 21:47:22;;;;;;;5.55;3.72;;;24.20;76.30;;;;;;5155929;27;20012;-82
2021/06/17 21:49:49;;;;;;;8.23;4.18;;;24.10;76.30;;;;;;5155267;27;20038;-82
2021/06/17 21:52:16;;;;;;;6.78;3.53;;;24.10;76.30;;;;;;5156831;27;20022;-81
2021/06/17 21:54:43;;;;;;;8.48;3.50;;;24.10;76.30;;;;;;5156668;27;20023;-83
2021/06/17 21:57:10;;;;;;;5.87;4.00;;;24.00;76.30;;;;;;5156820;27;20064;-81
2021/06/17 21:59:39;;;;;;;6.75;3.85;;;24.00;76.30;;;;;;5157227;27;20034;-82
2021/06/17 22:02:06;;;;;;;8.73;4.37;;;24.00;76.40;;;;;;5156657;27;20030;-84
2021/06/17 22:04:34;;;;;;;8.90;4.75;;;23.90;76.50;;;;;;5176992;27;20039;-82
2021/06/17 22:07:07;;;;;;;10.48;5.40;;;23.90;76.60;;;;;;5157852;27;20016;-84
2021/06/17 22:09:48;;;;;;;7.32;4.68;;;23.90;76.70;;;;;;5176133;27;20369;-84
2021/06/17 22:12:15;;;;;;;9.90;5.30;;;23.90;76.80;;;;;;5159228;27;20426;-83
2021/06/17 22:14:48;;;;;;;12.73;6.68;;;23.80;76.90;;;;;;5177270;27;20004;-89
2021/06/17 22:17:15;;;;;;;12.27;6.62;;;23.80;76.90;;;;;;5176784;27;20470;-85
2021/06/17 22:20:38;;;;;;;8.45;5.30;;;23.80;77.00;;;;;;5176391;27;20011;-90
2021/06/17 22:23:05;;;;;;;9.25;5.43;;;23.80;77.10;;;;;;5173099;27;20421;-81
2021/06/17 22:25:32;;;;;;;13.13;6.40;;;23.70;77.20;;;;;;5177063;27;20417;-81
2021/06/17 22:27:59;;;;;;;11.73;7.45;;;23.70;77.30;;;;;;5158224;27;20062;-83
2021/06/17 22:30:26;;;;;;;10.80;8.18;;;23.70;77.50;;;;;;5159351;27;20053;-83
2021/06/17 22:32:53;;;;;;;10.40;6.65;;;23.70;77.60;;;;;;5158569;27;20022;-83
2021/06/17 22:35:20;;;;;;;8.82;6.22;;;23.70;77.60;;;;;;5158191;27;20062;-83
2021/06/17 22:37:47;;;;;;;13.20;8.07;;;23.70;77.70;;;;;;5157730;27;20023;-83
2021/06/17 22:40:15;;;;;;;16.30;8.05;;;23.60;77.70;;;;;;5177684;27;20039;-83
2021/06/17 22:42:44;;;;;;;13.50;8.43;;;23.60;77.80;;;;;;5176904;27;20013;-82
2021/06/17 22:45:11;;;;;;;11.25;8.65;;;23.60;77.80;;;;;;5157728;27;20042;-84
2021/06/17 22:47:38;;;;;;;15.93;10.07;;;23.60;77.90;;;;;;5158206;27;20023;-82
2021/06/17 22:50:06;;;;;;;13.35;9.52;;;23.60;77.90;;;;;;5176678;27;20038;-83
2021/06/17 22:52:34;;;;;;;11.43;8.63;;;23.60;77.90;;;;;;5157944;27;20396;-80
2021/06/17 22:55:01;;;;;;;19.25;11.18;;;23.60;78.00;;;;;;5158205;27;20026;-79
2021/06/17 22:57:28;;;;;;;18.27;11.77;;;23.60;78.00;;;;;;5157937;27;20008;-80
2021/06/17 22:59:55;;;;;;;19.55;14.43;;;23.50;78.10;;;;;;5157898;27;20336;-81
2021/06/17 23:02:24;;;;;;;20.10;11.60;;;23.50;78.20;;;;;;5176564;27;20023;-83
2021/06/17 23:04:51;;;;;;;20.62;13.00;;;23.50;78.40;;;;;;5158023;27;20023;-80
2021/06/17 23:07:18;;;;;;;24.23;17.67;;;23.50;78.60;;;;;;5178558;27;20014;-79
2021/06/17 23:09:47;;;;;;;18.95;15.70;;;23.50;78.70;;;;;;5157948;27;20106;-80
2021/06/17 23:12:14;;;;;;;17.87;15.15;;;23.50;78.80;;;;;;5176901;27;20320;-79
2021/06/17 23:14:41;;;;;;;23.95;19.20;;;23.40;78.90;;;;;;5157569;27;20082;-78
2021/06/17 23:17:08;;;;;;;18.92;15.52;;;23.40;79.10;;;;;;5158794;27;20022;-79
2021/06/17 23:19:35;;;;;;;22.62;16.80;;;23.40;79.10;;;;;;5177793;27;20019;-80
2021/06/17 23:22:02;;;;;;;20.30;18.02;;;23.40;79.20;;;;;;5178573;27;20006;-79
2021/06/17 23:24:29;;;;;;;23.23;17.08;;;23.40;79.30;;;;;;5175891;27;20383;-82
2021/06/17 23:26:56;;;;;;;26.98;21.83;;;23.40;79.40;;;;;;5176687;27;20435;-81
2021/06/17 23:29:23;;;;;;;28.98;18.73;;;23.40;79.40;;;;;;5157839;27;20055;-79
2021/06/17 23:31:50;;;;;;;24.52;18.75;;;23.30;79.50;;;;;;5176123;27;20007;-79
2021/06/17 23:34:21;;;;;;;25.10;17.62;;;23.30;79.30;;;;;;5176445;27;20042;-79
2021/06/17 23:36:48;;;;;;;16.15;13.85;;;23.30;79.20;;;;;;5176317;27;20051;-78
2021/06/17 23:39:16;;;;;;;19.73;14.07;;;23.20;79.10;;;;;;5158322;27;20019;-79
2021/06/17 23:41:43;;;;;;;18.15;12.45;;;23.30;78.90;;;;;;5158103;27;20050;-78
2021/06/17 23:44:10;;;;;;;17.77;12.13;;;23.20;78.70;;;;;;5175894;27;20038;-80
2021/06/17 23:46:40;;;;;;;13.60;10.02;;;23.20;78.60;;;;;;5157801;27;20034;-79
2021/06/17 23:49:07;;;;;;;16.48;9.93;;;23.10;78.40;;;;;;5158527;27;20031;-79
2021/06/17 23:51:35;;;;;;;13.20;9.25;;;23.10;78.20;;;;;;5157781;27;20019;-80
2021/06/17 23:54:02;;;;;;;16.60;9.25;;;23.10;78.00;;;;;;5158831;27;20067;-79
2021/06/17 23:56:30;;;;;;;14.32;7.95;;;23.10;77.80;;;;;;5157787;27;20023;-79
2021/06/17 23:58:57;;;;;;;9.40;5.18;;;23.00;77.70;;;;;;5176738;27;20023;-80
